createdAt,value
2022-08-08T00:00:52.539Z,71.40
2022-08-08T00:03:32.546Z,72.92
2022-08-08T00:06:28.451Z,74.13
2022-08-08T00:09:22.289Z,75.14
2022-08-08T00:12:29.604Z,76.46
2022-08-08T00:15:55.736Z,78.41
2022-08-08T00:18:33.676Z,80.62
2022-08-08T00:21:23.212Z,82.57
2022-08-08T00:24:07.583Z,84.04
2022-08-08T00:26:58.772Z,84.61
2022-08-08T00:29:55.796Z,84.10
2022-08-08T00:32:53.108Z,84.02
2022-08-08T00:36:08.426Z,83.95
2022-08-08T00:41:06.795Z,82.84
2022-08-08T00:42:42.538Z,82.61
2022-08-08T00:46:01.412Z,81.52
2022-08-08T00:49:02.072Z,80.93
2022-08-08T00:52:20.101Z,81.25
2022-08-08T00:55:22.098Z,81.30
2022-08-08T00:58:36.700Z,81.63
2022-08-08T01:01:44.014Z,80.86
2022-08-08T01:04:36.844Z,81.31
2022-08-08T01:07:55.310Z,82.61
2022-08-08T01:10:57.991Z,84.20
2022-08-08T01:14:16.188Z,86.64
2022-08-08T01:17:35.036Z,89.48
2022-08-08T01:21:07.878Z,88.92
2022-08-08T01:24:43.601Z,89.03
2022-08-08T01:28:00.266Z,89.35
2022-08-08T01:32:15.258Z,90.92
2022-08-08T01:34:36.465Z,89.19
2022-08-08T01:37:59.234Z,88.45
2022-08-08T01:41:17.032Z,88.39
2022-08-08T01:44:26.674Z,86.49
2022-08-08T01:48:14.090Z,84.69
2022-08-08T01:50:38.379Z,82.86
2022-08-08T01:55:15.593Z,80.46
2022-08-08T01:56:59.809Z,80.49
2022-08-08T02:00:27.873Z,79.27
2022-08-08T02:03:55.985Z,75.97
2022-08-08T02:06:59.719Z,74.74
2022-08-08T02:10:04.205Z,73.63
2022-08-08T02:13:54.141Z,72.90
2022-08-08T02:16:44.949Z,72.50
2022-08-08T02:20:07.685Z,72.70
2022-08-08T02:22:55.359Z,73.88
2022-08-08T02:25:53.774Z,74.72
2022-08-08T02:29:14.950Z,74.94
2022-08-08T02:32:07.211Z,75.67
2022-08-08T02:35:07.833Z,76.08
2022-08-08T02:38:25.068Z,76.16
2022-08-08T02:41:59.657Z,75.85
2022-08-08T02:44:56.918Z,75.56
2022-08-08T02:47:55.000Z,75.85
2022-08-08T02:50:55.791Z,75.93
2022-08-08T02:54:30.317Z,76.93
2022-08-08T02:57:40.509Z,78.20
2022-08-08T03:01:14.872Z,79.82
2022-08-08T03:05:03.999Z,80.10
2022-08-08T03:07:58.598Z,81.40
2022-08-08T03:11:07.488Z,82.59
2022-08-08T03:16:03.867Z,83.05
2022-08-08T03:17:39.208Z,82.91
2022-08-08T03:20:18.403Z,83.83
2022-08-08T03:23:04.673Z,85.64
2022-08-08T03:25:51.042Z,85.87
2022-08-08T03:28:51.307Z,85.95
2022-08-08T03:32:05.293Z,85.10
2022-08-08T03:34:44.824Z,84.23
2022-08-08T03:38:54.565Z,83.65
2022-08-08T03:40:51.738Z,84.68
2022-08-08T03:43:38.417Z,84.70
2022-08-08T03:46:20.754Z,84.66
2022-08-08T03:52:44.581Z,83.72
2022-08-08T03:55:57.221Z,83.48
2022-08-08T03:58:47.764Z,84.50
2022-08-08T04:01:27.732Z,83.71
2022-08-08T04:04:31.403Z,82.89
2022-08-08T04:07:11.708Z,83.52
2022-08-08T04:10:02.892Z,85.19
2022-08-08T04:12:46.332Z,86.34
2022-08-08T04:15:30.452Z,87.13
2022-08-08T04:18:18.473Z,87.29
2022-08-08T04:21:06.350Z,85.37
2022-08-08T04:24:05.877Z,83.04
2022-08-08T04:26:57.095Z,83.83
2022-08-08T04:29:38.920Z,84.39
2022-08-08T04:32:35.680Z,85.30
2022-08-08T04:35:17.250Z,85.64
2022-08-08T04:37:58.696Z,86.15
2022-08-08T04:40:51.797Z,86.12
2022-08-08T04:43:31.830Z,86.33
2022-08-08T04:46:30.913Z,87.34
2022-08-08T04:49:11.433Z,87.38
2022-08-08T04:51:57.658Z,88.17
2022-08-08T04:54:42.427Z,86.74
2022-08-08T04:57:18.658Z,86.46
2022-08-08T05:00:02.694Z,85.50
2022-08-08T05:02:45.730Z,83.05
2022-08-08T05:05:44.136Z,82.55
2022-08-08T05:08:28.739Z,82.10
2022-08-08T05:11:23.881Z,81.98
2022-08-08T05:14:02.417Z,81.05
2022-08-08T05:17:01.426Z,80.64
2022-08-08T05:20:12.687Z,74.76
2022-08-08T05:22:50.334Z,73.96
2022-08-08T05:25:53.808Z,74.81
2022-08-08T05:28:55.779Z,71.80
2022-08-08T05:32:03.111Z,70.43
2022-08-08T05:34:54.646Z,70.47
2022-08-08T05:37:53.385Z,68.17
2022-08-08T05:40:58.210Z,68.80
2022-08-08T05:43:39.950Z,66.33
2022-08-08T05:46:36.007Z,65.70
2022-08-08T05:49:22.077Z,63.56
2022-08-08T05:52:06.001Z,63.68
2022-08-08T05:54:50.317Z,63.72
2022-08-08T05:58:05.417Z,64.03
2022-08-08T06:00:34.478Z,65.64
2022-08-08T06:03:25.416Z,64.22
2022-08-08T06:06:10.647Z,60.36
2022-08-08T06:08:54.918Z,60.82
2022-08-08T06:11:49.111Z,62.03
2022-08-08T06:14:32.887Z,61.12
2022-08-08T06:20:13.733Z,59.39
2022-08-08T06:22:52.620Z,58.70
2022-08-08T06:25:58.914Z,59.56
2022-08-08T06:28:55.667Z,59.55
2022-08-08T06:32:09.281Z,57.82
2022-08-08T06:35:11.938Z,57.86
2022-08-08T06:38:01.658Z,57.89
2022-08-08T06:40:48.293Z,55.54
2022-08-08T06:43:21.130Z,56.03
2022-08-08T06:46:16.982Z,52.73
2022-08-08T06:48:59.742Z,53.66
2022-08-08T06:51:46.921Z,52.18
2022-08-08T06:54:32.474Z,49.92
2022-08-08T06:57:06.330Z,50.03
2022-08-08T07:00:10.538Z,48.91
2022-08-08T07:03:19.359Z,47.97
2022-08-08T07:06:02.123Z,46.30
2022-08-08T07:08:55.324Z,46.00
2022-08-08T07:11:46.271Z,46.41
2022-08-08T07:14:42.365Z,46.96
2022-08-08T07:17:40.144Z,47.08
2022-08-08T07:20:50.547Z,48.34
2022-08-08T07:24:01.263Z,48.46
2022-08-08T07:26:53.863Z,48.36
2022-08-08T07:30:02.489Z,49.34
2022-08-08T07:32:53.721Z,49.43
2022-08-08T07:35:36.667Z,48.78
2022-08-08T07:38:25.510Z,49.76
2022-08-08T07:41:23.380Z,50.50
2022-08-08T07:44:33.636Z,51.46
2022-08-08T07:47:19.036Z,50.06
2022-08-08T07:50:25.363Z,47.63
2022-08-08T07:53:07.595Z,49.17
2022-08-08T07:55:54.567Z,46.71
2022-08-08T07:58:33.701Z,48.23
2022-08-08T08:01:16.038Z,46.90
2022-08-08T08:04:35.947Z,46.22
2022-08-08T08:07:32.307Z,47.35
2022-08-08T08:10:30.575Z,46.30
2022-08-08T08:14:07.670Z,45.39
2022-08-08T08:16:51.727Z,45.96
2022-08-08T08:19:45.906Z,45.94
2022-08-08T08:22:27.927Z,47.51
2022-08-08T08:25:42.520Z,46.07
2022-08-08T08:28:29.170Z,46.56
2022-08-08T08:31:17.553Z,44.01
2022-08-08T08:33:53.235Z,44.59
2022-08-08T08:36:26.568Z,43.95
2022-08-08T08:39:17.647Z,44.15
2022-08-08T08:42:02.877Z,44.98
2022-08-08T08:44:41.839Z,44.96
2022-08-08T08:47:27.355Z,46.06
2022-08-08T08:50:33.879Z,44.82
2022-08-08T08:53:27.853Z,44.92
2022-08-08T08:56:26.281Z,44.70
2022-08-08T08:59:30.602Z,45.43
2022-08-08T09:02:24.688Z,44.97
2022-08-08T09:05:49.098Z,44.88
2022-08-08T09:08:29.853Z,44.16
2022-08-08T09:11:18.680Z,46.78
2022-08-08T09:13:55.018Z,46.54
2022-08-08T09:16:45.285Z,46.59
2022-08-08T09:21:59.393Z,44.50
2022-08-08T09:22:42.278Z,43.86
2022-08-08T09:25:22.840Z,44.73
2022-08-08T09:28:31.610Z,44.12
2022-08-08T09:31:56.071Z,44.12
2022-08-08T09:34:50.414Z,43.61
2022-08-08T09:38:01.218Z,45.00
2022-08-08T09:40:55.593Z,46.16
2022-08-08T09:44:06.413Z,44.75
2022-08-08T09:47:05.598Z,43.63
2022-08-08T09:50:03.480Z,44.69
2022-08-08T09:53:02.238Z,44.31
2022-08-08T09:56:05.705Z,42.77
2022-08-08T09:58:48.254Z,44.18
2022-08-08T10:01:59.689Z,45.70
2022-08-08T10:04:47.283Z,41.72
2022-08-08T10:07:26.078Z,41.91
2022-08-08T10:10:09.777Z,42.22
2022-08-08T10:12:53.448Z,43.80
2022-08-08T10:15:40.724Z,41.52
2022-08-08T10:18:43.825Z,42.83
2022-08-08T10:21:33.120Z,44.48
2022-08-08T10:24:35.261Z,42.62
2022-08-08T10:27:23.439Z,44.78
2022-08-08T10:30:16.722Z,43.65
2022-08-08T10:33:08.890Z,44.04
2022-08-08T10:36:09.234Z,43.70
2022-08-08T10:39:08.098Z,43.92
2022-08-08T10:42:13.151Z,43.60
2022-08-08T10:44:51.729Z,41.91
2022-08-08T10:47:43.843Z,43.29
2022-08-08T10:50:25.807Z,43.02
2022-08-08T10:53:20.704Z,42.14
2022-08-08T10:56:27.691Z,43.30
2022-08-08T10:59:14.068Z,42.00
2022-08-08T11:02:03.086Z,43.74
2022-08-08T11:04:39.113Z,41.99
2022-08-08T11:08:31.011Z,40.84
2022-08-08T11:10:34.897Z,42.13
2022-08-08T11:13:31.978Z,41.06
2022-08-08T11:16:33.183Z,40.95
2022-08-08T11:19:17.373Z,40.58
2022-08-08T11:22:00.774Z,41.37
2022-08-08T11:24:44.831Z,42.03
2022-08-08T11:27:29.310Z,41.38
2022-08-08T11:30:20.152Z,41.57
2022-08-08T11:33:12.222Z,41.86
2022-08-08T11:35:55.518Z,41.67
2022-08-08T11:38:54.194Z,42.28
2022-08-08T11:41:39.316Z,42.85
2022-08-08T11:44:29.004Z,42.96
2022-08-08T11:47:12.961Z,41.98
2022-08-08T11:50:10.054Z,41.14
2022-08-08T11:52:52.400Z,42.65
2022-08-08T11:55:36.715Z,48.56
2022-08-08T11:58:21.891Z,51.36
2022-08-08T12:00:58.687Z,53.80
2022-08-08T12:03:36.942Z,56.00
2022-08-08T12:06:26.037Z,57.61
2022-08-08T12:09:56.995Z,59.52
2022-08-08T12:12:36.677Z,60.37
2022-08-08T12:15:15.458Z,61.83
2022-08-08T12:18:15.987Z,62.25
2022-08-08T12:21:00.127Z,63.89
2022-08-08T12:23:42.825Z,63.86
2022-08-08T12:26:38.755Z,63.40
2022-08-08T12:29:44.952Z,66.40
2022-08-08T12:32:31.133Z,67.69
2022-08-08T12:35:22.836Z,68.87
2022-08-08T12:38:18.117Z,69.90
2022-08-08T12:41:00.931Z,71.28
2022-08-08T12:43:46.464Z,75.05
2022-08-08T12:46:42.811Z,75.12
2022-08-08T12:49:45.134Z,77.02
2022-08-08T12:52:39.757Z,78.03
2022-08-08T12:55:32.102Z,77.95
2022-08-08T12:58:25.285Z,79.63
2022-08-08T13:01:24.731Z,81.52
2022-08-08T13:04:24.405Z,81.03
2022-08-08T13:08:02.229Z,80.90
2022-08-08T13:10:27.823Z,79.81
2022-08-08T13:13:14.090Z,78.94
2022-08-08T13:15:54.763Z,77.76
2022-08-08T13:18:32.592Z,76.85
2022-08-08T13:21:36.395Z,76.76
2022-08-08T13:24:42.407Z,76.62
2022-08-08T13:27:35.578Z,77.24
2022-08-08T13:30:16.048Z,76.81
2022-08-08T13:32:58.870Z,76.92
2022-08-08T13:35:38.751Z,76.15
2022-08-08T13:38:28.540Z,76.38
2022-08-08T13:41:16.437Z,76.63
2022-08-08T13:43:55.643Z,76.54
2022-08-08T13:46:30.805Z,76.50
2022-08-08T13:50:33.256Z,75.69
2022-08-08T13:52:10.600Z,74.94
2022-08-08T13:54:52.720Z,71.58
2022-08-08T13:58:07.049Z,73.65
2022-08-08T14:00:21.441Z,74.76
2022-08-08T14:03:38.437Z,75.12
2022-08-08T14:06:33.981Z,75.01
2022-08-08T14:09:24.974Z,75.46
2022-08-08T14:11:59.968Z,73.70
2022-08-08T14:14:47.387Z,74.47
2022-08-08T14:17:58.422Z,74.21
2022-08-08T14:20:56.362Z,74.16
2022-08-08T14:24:04.715Z,74.16
2022-08-08T14:26:36.361Z,74.66
2022-08-08T14:29:28.577Z,74.39
2022-08-08T14:32:09.965Z,75.04
2022-08-08T14:35:05.783Z,75.21
2022-08-08T14:37:59.943Z,75.25
2022-08-08T14:40:47.528Z,75.84
2022-08-08T14:44:02.591Z,76.49
2022-08-08T14:46:42.638Z,76.13
2022-08-08T14:49:33.582Z,76.44
2022-08-08T14:52:28.005Z,75.92
2022-08-08T14:55:02.934Z,74.40
2022-08-08T14:58:02.735Z,73.64
2022-08-08T15:00:48.233Z,74.13
2022-08-08T15:03:16.985Z,72.34
2022-08-08T15:06:16.570Z,70.76
2022-08-08T15:09:00.454Z,72.00
2022-08-08T15:11:53.552Z,69.30
2022-08-08T15:14:40.037Z,68.12
2022-08-08T15:17:16.192Z,65.43
2022-08-08T15:19:56.669Z,64.42
2022-08-08T15:22:34.751Z,64.44
2022-08-08T15:25:17.393Z,63.16
2022-08-08T15:28:34.146Z,60.35
2022-08-08T15:31:10.288Z,59.06
2022-08-08T15:34:06.997Z,57.13
2022-08-08T15:36:44.178Z,58.95
2022-08-08T15:39:21.720Z,59.26
2022-08-08T15:42:10.196Z,58.72
2022-08-08T15:44:43.547Z,59.09
2022-08-08T15:47:22.629Z,60.53
2022-08-08T15:49:57.434Z,60.13
2022-08-08T15:52:38.282Z,60.40
2022-08-08T15:55:14.583Z,61.11
2022-08-08T15:57:55.771Z,61.77
2022-08-08T16:00:36.821Z,63.64
2022-08-08T16:03:23.936Z,65.23
2022-08-08T16:06:08.194Z,67.28
2022-08-08T16:12:59.985Z,70.82
2022-08-08T16:13:12.039Z,71.57
2022-08-08T16:15:14.350Z,74.01
2022-08-08T16:18:11.262Z,73.63
2022-08-08T16:20:50.997Z,73.55
2022-08-08T16:23:21.554Z,75.03
2022-08-08T16:26:03.472Z,74.05
2022-08-08T16:28:43.134Z,74.13
2022-08-08T16:31:21.509Z,73.16
2022-08-08T16:34:08.878Z,73.17
2022-08-08T16:36:50.490Z,73.56
2022-08-08T16:39:59.772Z,75.06
2022-08-08T16:42:21.575Z,75.29
2022-08-08T16:46:37.653Z,74.65
2022-08-08T16:48:18.038Z,74.55
2022-08-08T16:51:01.820Z,75.33
2022-08-08T16:55:04.274Z,73.64
2022-08-08T16:57:01.646Z,70.29
2022-08-08T16:59:50.691Z,70.11
2022-08-08T17:02:38.538Z,71.68
2022-08-08T17:05:14.107Z,73.87
2022-08-08T17:07:51.094Z,75.28
2022-08-08T17:10:21.934Z,75.70
2022-08-08T17:13:02.718Z,76.88
2022-08-08T17:15:52.735Z,77.30
2022-08-08T17:18:33.699Z,78.15
2022-08-08T17:21:11.905Z,77.94
2022-08-08T17:24:00.066Z,77.91
2022-08-08T17:26:53.207Z,79.12
2022-08-08T17:29:43.567Z,79.44
2022-08-08T17:34:34.934Z,80.10
2022-08-08T17:35:56.134Z,80.37
2022-08-08T17:38:34.421Z,80.62
2022-08-08T17:41:09.865Z,81.21
2022-08-08T17:44:01.165Z,81.16
2022-08-08T17:46:59.704Z,83.62
2022-08-08T17:49:43.865Z,83.63
2022-08-08T17:52:23.044Z,83.74
2022-08-08T17:55:05.394Z,83.88
2022-08-08T17:57:39.859Z,84.55
2022-08-08T18:00:21.408Z,86.95
2022-08-08T18:03:07.642Z,87.60
2022-08-08T18:05:47.938Z,87.96
2022-08-08T18:08:43.582Z,88.65
2022-08-08T18:11:29.540Z,88.54
2022-08-08T18:14:21.763Z,89.39
2022-08-08T18:17:03.106Z,89.31
2022-08-08T18:19:46.762Z,89.77
2022-08-08T18:23:04.955Z,90.89
2022-08-08T18:25:55.533Z,91.12
2022-08-08T18:28:54.006Z,92.04
2022-08-08T18:31:28.729Z,93.07
2022-08-08T18:34:12.181Z,93.30
2022-08-08T18:37:09.391Z,92.80
2022-08-08T18:39:53.444Z,93.22
2022-08-08T18:42:53.240Z,93.62
2022-08-08T18:46:00.451Z,94.82
2022-08-08T18:48:41.230Z,95.94
2022-08-08T18:51:40.561Z,96.26
2022-08-08T18:54:22.849Z,96.57
2022-08-08T18:57:42.051Z,98.81
2022-08-08T19:00:22.004Z,98.69
2022-08-08T19:03:06.085Z,99.12
2022-08-08T19:05:51.699Z,98.81
2022-08-08T19:08:33.072Z,100.00
2022-08-08T19:11:17.324Z,99.70
2022-08-08T19:13:59.018Z,100.00
2022-08-08T19:16:41.443Z,100.00
2022-08-08T19:19:27.532Z,100.00
2022-08-08T19:22:21.887Z,100.00
2022-08-08T19:25:03.534Z,100.00
2022-08-08T19:28:04.160Z,100.00
2022-08-08T19:31:04.339Z,100.00
2022-08-08T19:34:04.337Z,100.00
2022-08-08T19:36:42.268Z,100.00
2022-08-08T19:39:23.315Z,100.00
2022-08-08T19:41:57.480Z,100.00
2022-08-08T19:44:42.513Z,100.00
2022-08-08T19:47:27.356Z,100.00
2022-08-08T19:50:04.960Z,100.00
2022-08-08T19:52:55.064Z,100.00
2022-08-08T19:55:47.189Z,100.00
2022-08-08T19:58:29.355Z,100.00
2022-08-08T20:01:17.370Z,100.00
2022-08-08T20:04:12.914Z,100.00
2022-08-08T20:06:56.970Z,100.00
2022-08-08T20:09:45.251Z,100.00
2022-08-08T20:12:35.937Z,100.00
2022-08-08T20:15:16.600Z,100.00
2022-08-08T20:17:52.835Z,100.00
2022-08-08T20:20:41.109Z,100.00
2022-08-08T20:23:16.737Z,100.00
2022-08-08T20:25:57.541Z,100.00
2022-08-08T20:28:32.699Z,100.00
2022-08-08T20:31:19.137Z,100.00
2022-08-08T20:34:29.309Z,100.00
2022-08-08T20:37:06.150Z,100.00
2022-08-08T20:39:50.885Z,100.00
2022-08-08T20:42:38.670Z,100.00
2022-08-08T20:45:54.990Z,100.00
2022-08-08T20:48:29.600Z,100.00
2022-08-08T20:50:59.601Z,100.00
2022-08-08T20:54:00.960Z,100.00
2022-08-08T20:57:04.402Z,99.66
2022-08-08T21:00:01.123Z,100.00
2022-08-08T21:02:34.299Z,100.00
2022-08-08T21:05:23.268Z,99.57
2022-08-08T21:08:36.834Z,100.00
2022-08-08T21:11:06.812Z,100.00
2022-08-08T21:13:48.024Z,99.96
2022-08-08T21:16:33.739Z,99.77
2022-08-08T21:19:10.772Z,100.00
2022-08-08T21:21:42.667Z,100.00
2022-08-08T21:24:30.363Z,100.00
2022-08-08T21:27:05.284Z,100.00
2022-08-08T21:30:02.593Z,100.00
2022-08-08T21:32:37.382Z,100.00
2022-08-08T21:36:17.732Z,100.00
2022-08-08T21:38:16.055Z,100.00
2022-08-08T21:40:58.715Z,100.00
2022-08-08T21:43:35.640Z,100.00
2022-08-08T21:48:08.234Z,100.00
2022-08-08T21:49:31.166Z,100.00
2022-08-08T21:54:23.309Z,100.00
2022-08-08T21:56:24.565Z,100.00
2022-08-08T21:58:37.825Z,100.00
2022-08-08T22:01:27.836Z,100.00
2022-08-08T22:04:32.709Z,100.00
2022-08-08T22:07:08.824Z,100.00
2022-08-08T22:09:46.744Z,100.00
2022-08-08T22:12:28.748Z,100.00
2022-08-08T22:15:07.660Z,100.00
2022-08-08T22:17:49.454Z,100.00
2022-08-08T22:20:28.322Z,100.00
2022-08-08T22:23:12.054Z,100.00
2022-08-08T22:26:27.110Z,100.00
2022-08-08T22:29:57.008Z,100.00
2022-08-08T22:32:03.527Z,100.00
2022-08-08T22:34:39.895Z,100.00
2022-08-08T22:37:48.890Z,100.00
2022-08-08T22:40:26.760Z,100.00
2022-08-08T22:43:12.762Z,100.00
2022-08-08T22:46:01.000Z,100.00
2022-08-08T22:48:40.037Z,100.00
2022-08-08T22:51:21.952Z,100.00
2022-08-08T22:54:34.034Z,100.00
2022-08-08T22:57:11.641Z,100.00
2022-08-08T23:00:01.093Z,100.00
2022-08-08T23:02:44.679Z,100.00
2022-08-08T23:05:28.039Z,100.00
2022-08-08T23:08:02.707Z,100.00
2022-08-08T23:10:36.720Z,100.00
2022-08-08T23:13:12.772Z,100.00
2022-08-08T23:16:38.242Z,100.00
2022-08-08T23:19:09.676Z,100.00
2022-08-08T23:21:51.909Z,100.00
2022-08-08T23:24:41.463Z,100.00
2022-08-08T23:27:39.258Z,100.00
2022-08-08T23:30:32.763Z,100.00
2022-08-08T23:33:35.952Z,100.00
2022-08-08T23:36:24.269Z,100.00
2022-08-08T23:39:07.379Z,100.00
2022-08-08T23:41:49.576Z,100.00
2022-08-08T23:44:36.580Z,100.00
2022-08-08T23:49:07.772Z,100.00
2022-08-08T23:50:31.108Z,100.00
2022-08-08T23:53:10.069Z,100.00
2022-08-08T23:55:58.568Z,100.00
2022-08-08T23:58:39.122Z,100.00
